Time;durP1;ratioP1;P1;durP2;ratioP2;P2;SDS_P1;SDS_P2;PMS_P1;PMS_P2;Temp;Humidity;BMP_temperature;BMP_pressure;BME280_temperature;BME280_humidity;BME280_pressure;Samples;Min_cycle;Max_cycle;Signal;HPM_P1;HPM_P2
2022/12/07 00:02:14;;;;;;;15.17;11.40;;;;;;;2.41;100.00;95552.78;4989917;28;20196;-77
2022/12/07 00:04:39;;;;;;;15.80;10.70;;;;;;;2.49;100.00;95547.97;4987895;28;20824;-78
2022/12/07 00:07:04;;;;;;;16.10;11.93;;;;;;;2.53;100.00;95551.97;4982569;28;20200;-76
2022/12/07 00:09:30;;;;;;;15.73;11.60;;;;;;;2.51;100.00;95553.00;4983647;28;20198;-78
2022/12/07 00:11:55;;;;;;;14.80;11.63;;;;;;;2.42;100.00;95556.97;4978336;28;20204;-78
2022/12/07 00:14:20;;;;;;;15.30;10.47;;;;;;;2.52;100.00;95557.22;4988081;28;20220;-77
2022/12/07 00:16:48;;;;;;;15.57;11.07;;;;;;;2.53;100.00;95544.28;4970566;28;20199;-78
2022/12/07 00:19:14;;;;;;;16.17;11.27;;;;;;;2.53;100.00;95546.84;4972632;28;20274;-78
2022/12/07 00:21:39;;;;;;;15.23;11.03;;;;;;;2.52;100.00;95547.78;4985225;28;20266;-79
2022/12/07 00:24:05;;;;;;;15.60;10.87;;;;;;;2.54;100.00;95538.25;4985025;28;20243;-79
2022/12/07 00:26:36;;;;;;;17.20;11.90;;;;;;;2.48;100.00;95543.78;4980894;28;20192;-77
2022/12/07 00:29:05;;;;;;;15.27;11.47;;;;;;;2.50;100.00;95541.13;4962894;28;20219;-78
2022/12/07 00:31:38;;;;;;;13.83;11.03;;;;;;;2.54;100.00;95540.81;4981123;28;20215;-77
2022/12/07 00:34:04;;;;;;;16.13;10.90;;;;;;;2.51;100.00;95538.44;4983100;28;20306;-78
2022/12/07 00:36:29;;;;;;;14.83;10.50;;;;;;;2.53;100.00;95536.59;4978935;28;20212;-78
2022/12/07 00:38:57;;;;;;;16.93;11.17;;;;;;;2.51;100.00;95541.00;4979260;28;20671;-77
2022/12/07 00:41:24;;;;;;;14.67;10.97;;;;;;;2.55;100.00;95533.94;4983927;28;20686;-78
2022/12/07 00:43:50;;;;;;;15.97;11.63;;;;;;;2.55;100.00;95537.31;4984405;28;20212;-78
2022/12/07 00:46:16;;;;;;;17.60;11.77;;;;;;;2.52;100.00;95537.53;4991107;28;20195;-77
2022/12/07 00:48:42;;;;;;;12.70;10.57;;;;;;;2.58;100.00;95541.44;4974800;28;20214;-78
2022/12/07 00:51:08;;;;;;;14.37;11.50;;;;;;;2.53;100.00;95543.47;4983614;28;20240;-79
2022/12/07 00:53:34;;;;;;;16.27;11.27;;;;;;;2.51;100.00;95538.44;4996638;28;20227;-76
2022/12/07 00:56:05;;;;;;;13.07;10.63;;;;;;;2.51;100.00;95538.44;5003977;28;20193;-76
2022/12/07 00:58:31;;;;;;;13.37;10.40;;;;;;;2.48;100.00;95538.66;4987442;28;20172;-76
2022/12/07 01:01:00;;;;;;;17.53;11.57;;;;;;;2.52;100.00;95542.66;5003250;28;20185;-78
2022/12/07 01:03:25;;;;;;;15.60;11.10;;;;;;;2.45;100.00;95545.69;4991839;28;20431;-77
2022/12/07 01:05:52;;;;;;;15.93;11.23;;;;;;;2.48;100.00;95538.66;5010869;28;20183;-79
2022/12/07 01:08:17;;;;;;;15.70;10.83;;;;;;;2.50;100.00;95541.13;4968021;28;20223;-78
2022/12/07 01:10:42;;;;;;;18.03;11.60;;;;;;;2.50;100.00;95539.38;4986727;28;20193;-78
2022/12/07 01:13:08;;;;;;;15.47;11.60;;;;;;;2.48;100.00;95542.97;4979750;28;20200;-78
2022/12/07 01:15:33;;;;;;;15.23;11.40;;;;;;;2.45;100.00;95540.56;4976174;28;20238;-78
2022/12/07 01:17:58;;;;;;;18.17;12.20;;;;;;;2.43;100.00;95543.25;4980404;28;20192;-76
2022/12/07 01:20:24;;;;;;;16.07;11.67;;;;;;;2.41;100.00;95537.41;4976077;28;20679;-77
2022/12/07 01:22:49;;;;;;;16.93;12.03;;;;;;;2.30;100.00;95538.97;4973763;28;20204;-78
2022/12/07 01:25:14;;;;;;;19.47;12.07;;;;;;;2.43;100.00;95547.56;4983187;28;20219;-77
2022/12/07 01:27:40;;;;;;;17.00;11.93;;;;;;;2.43;100.00;95545.81;4982440;28;20195;-77
2022/12/07 01:30:06;;;;;;;14.13;10.57;;;;;;;2.48;100.00;95556.59;4978898;28;20192;-78
2022/12/07 01:32:32;;;;;;;16.27;11.57;;;;;;;2.47;100.00;95549.84;4981447;28;20219;-77
2022/12/07 01:34:57;;;;;;;15.77;11.17;;;;;;;2.42;100.00;95551.84;4964638;28;20898;-77
2022/12/07 01:37:23;;;;;;;18.20;11.97;;;;;;;2.48;100.00;95555.78;4981480;28;20189;-77
2022/12/07 01:39:49;;;;;;;17.20;11.17;;;;;;;2.51;100.00;95563.25;4974052;28;20573;-77
2022/12/07 01:42:15;;;;;;;17.10;11.80;;;;;;;2.51;100.00;95556.38;4963892;28;20183;-75
2022/12/07 01:45:17;;;;;;;20.10;12.53;;;;;;;2.50;100.00;95559.06;4977288;28;20223;-79
2022/12/07 01:47:46;;;;;;;18.37;12.63;;;;;;;2.43;100.00;95555.25;4973070;28;20608;-77
2022/12/07 01:50:14;;;;;;;16.07;11.43;;;;;;;2.41;100.00;95559.66;4983062;28;20192;-76
2022/12/07 01:52:41;;;;;;;15.90;11.90;;;;;;;2.46;100.00;95562.72;4985901;28;20207;-79
2022/12/07 01:55:08;;;;;;;18.67;11.80;;;;;;;2.46;100.00;95557.59;4991447;28;20216;-78
2022/12/07 01:57:35;;;;;;;16.87;11.90;;;;;;;2.41;100.00;95557.09;4990577;28;20191;-80
2022/12/07 02:00:02;;;;;;;16.37;12.13;;;;;;;2.44;100.00;95556.88;4989193;28;20187;-79
2022/12/07 02:02:31;;;;;;;18.50;12.17;;;;;;;2.38;100.00;95558.09;4966751;28;20189;-80
2022/12/07 02:04:57;;;;;;;18.03;11.77;;;;;;;2.32;100.00;95560.22;4995492;28;20238;-79
2022/12/07 02:07:23;;;;;;;16.13;11.53;;;;;;;2.39;100.00;95554.63;4985834;28;20219;-79
2022/12/07 02:09:48;;;;;;;15.80;10.83;;;;;;;2.34;100.00;95548.97;4988333;28;20215;-79
2022/12/07 02:12:14;;;;;;;17.23;12.03;;;;;;;2.35;100.00;95545.47;4981409;28;20688;-79
2022/12/07 02:14:39;;;;;;;16.93;11.93;;;;;;;2.32;99.77;95548.25;4972121;28;20216;-78
2022/12/07 02:17:10;;;;;;;17.70;11.53;;;;;;;2.35;100.00;95554.91;4968028;28;20196;-80
2022/12/07 02:20:31;;;;;;;15.70;11.47;;;;;;;2.32;100.00;95555.94;4987592;28;20215;-79
2022/12/07 02:23:15;;;;;;;16.03;10.63;;;;;;;2.31;100.00;95546.59;4968267;28;20208;-80
2022/12/07 02:26:03;;;;;;;14.53;11.33;;;;;;;2.35;99.72;95549.78;4987197;28;20292;-80
2022/12/07 02:28:28;;;;;;;15.63;11.10;;;;;;;2.25;99.10;95549.53;4987431;28;20184;-79
2022/12/07 02:30:56;;;;;;;13.93;9.87;;;;;;;2.31;99.35;95544.03;4979233;28;20227;-78
2022/12/07 02:33:27;;;;;;;13.97;10.97;;;;;;;2.32;99.55;95535.44;4984561;28;20188;-79
2022/12/07 02:36:07;;;;;;;14.57;10.30;;;;;;;2.29;98.97;95540.72;4966441;28;20552;-79
2022/12/07 02:38:54;;;;;;;14.47;10.13;;;;;;;2.27;99.32;95535.72;4990759;28;20193;-79
2022/12/07 02:41:26;;;;;;;12.73;9.37;;;;;;;2.23;98.85;95541.97;4981145;28;20214;-79
2022/12/07 02:43:54;;;;;;;13.63;9.93;;;;;;;2.12;98.32;95535.84;4984752;28;20207;-80
2022/12/07 02:46:26;;;;;;;12.90;10.00;;;;;;;2.09;99.15;95536.88;4985475;28;20786;-79
2022/12/07 02:48:51;;;;;;;14.93;9.97;;;;;;;2.02;99.15;95534.78;4960122;28;20220;-79
2022/12/07 02:51:18;;;;;;;13.20;8.83;;;;;;;1.88;99.63;95527.97;4985508;28;20220;-80
2022/12/07 02:53:43;;;;;;;15.17;9.73;;;;;;;1.85;99.28;95528.97;4989245;28;20223;-80
2022/12/07 02:56:22;;;;;;;13.37;9.23;;;;;;;1.93;99.10;95524.19;4987057;28;20253;-78
2022/12/07 02:59:09;;;;;;;13.67;9.23;;;;;;;1.90;98.93;95524.41;4988999;28;20679;-79
2022/12/07 03:01:56;;;;;;;11.60;8.57;;;;;;;1.94;98.66;95525.88;4983840;28;20180;-79
2022/12/07 03:04:40;;;;;;;13.27;8.73;;;;;;;1.91;98.29;95527.78;4964725;28;20200;-80
2022/12/07 03:07:14;;;;;;;13.60;8.43;;;;;;;1.91;98.80;95526.03;4984806;28;20632;-80
2022/12/07 03:09:54;;;;;;;14.60;9.87;;;;;;;1.93;98.53;95521.63;4982433;28;20188;-79
2022/12/07 03:12:26;;;;;;;11.90;8.20;;;;;;;1.92;98.22;95524.28;4986780;28;20295;-79
2022/12/07 03:14:59;;;;;;;12.97;8.23;;;;;;;1.86;98.18;95522.97;4992880;28;20589;-79
2022/12/07 03:17:27;;;;;;;10.47;7.57;;;;;;;1.69;98.37;95521.44;4984593;28;20195;-79
2022/12/07 03:19:56;;;;;;;9.63;6.67;;;;;;;1.68;98.32;95519.78;4965830;28;20211;-79
2022/12/07 03:22:23;;;;;;;11.43;6.97;;;;;;;1.68;97.86;95513.84;4960300;28;20177;-79
2022/12/07 03:24:52;;;;;;;9.67;6.60;;;;;;;1.72;97.62;95510.19;4986767;28;20243;-78
2022/12/07 03:27:23;;;;;;;9.97;6.50;;;;;;;1.76;96.41;95515.91;4971681;28;20334;-79
2022/12/07 03:30:19;;;;;;;8.37;5.77;;;;;;;1.64;95.34;95513.22;4973444;28;20184;-80
2022/12/07 03:32:48;;;;;;;7.33;5.80;;;;;;;1.78;94.49;95516.66;4983619;28;20255;-79
2022/12/07 03:35:17;;;;;;;9.93;6.30;;;;;;;1.78;94.53;95520.06;4970204;28;20209;-79
2022/12/07 03:37:50;;;;;;;9.17;5.90;;;;;;;1.88;93.64;95517.72;4976115;28;20592;-79
2022/12/07 03:40:22;;;;;;;7.33;5.53;;;;;;;1.67;92.91;95510.44;4986270;28;20263;-80
2022/12/07 03:42:48;;;;;;;8.53;6.50;;;;;;;1.73;93.10;95519.50;4984467;28;20187;-79
2022/12/07 03:45:13;;;;;;;7.27;5.43;;;;;;;1.74;91.95;95518.56;4989167;28;20234;-79
2022/12/07 03:48:03;;;;;;;7.83;5.97;;;;;;;1.70;91.97;95514.56;4978480;28;20176;-78
2022/12/07 03:50:31;;;;;;;6.20;5.07;;;;;;;1.83;91.29;95517.19;4982514;28;20199;-79
2022/12/07 03:53:08;;;;;;;6.90;5.23;;;;;;;1.81;89.94;95512.16;4983439;28;20583;-78
2022/12/07 03:55:36;;;;;;;6.33;4.70;;;;;;;1.67;88.33;95507.06;4982394;28;20219;-78
2022/12/07 03:58:05;;;;;;;6.60;4.87;;;;;;;1.70;88.55;95497.47;4984807;28;20235;-78
2022/12/07 04:00:30;;;;;;;6.63;4.37;;;;;;;1.73;88.21;95501.56;4971270;28;20212;-78
2022/12/07 04:02:56;;;;;;;5.90;4.23;;;;;;;1.87;87.57;95499.00;4981903;28;20191;-79
2022/12/07 04:05:22;;;;;;;5.80;4.77;;;;;;;1.83;87.93;95496.69;4988228;28;20239;-79
2022/12/07 04:07:48;;;;;;;8.03;5.30;;;;;;;1.75;88.66;95496.34;4982953;28;20568;-79
2022/12/07 04:10:13;;;;;;;6.87;5.40;;;;;;;1.65;89.17;95486.69;4988748;28;20192;-80
2022/12/07 04:12:38;;;;;;;6.23;4.47;;;;;;;1.56;89.11;95483.88;4976574;28;20191;-79
2022/12/07 04:15:05;;;;;;;8.80;5.47;;;;;;;1.56;89.28;95482.13;4967777;28;20216;-79
2022/12/07 04:17:30;;;;;;;7.53;5.83;;;;;;;1.69;89.21;95479.66;4969207;28;20724;-78
2022/12/07 04:19:55;;;;;;;7.27;5.43;;;;;;;1.61;89.09;95469.88;4987110;28;20287;-78
2022/12/07 04:22:20;;;;;;;7.30;5.43;;;;;;;1.57;88.62;95470.16;4988018;28;20176;-77
2022/12/07 04:24:46;;;;;;;7.47;5.60;;;;;;;1.42;88.71;95466.81;4981914;28;20294;-79
2022/12/07 04:27:11;;;;;;;6.77;5.10;;;;;;;1.30;88.04;95465.81;4982419;28;20192;-80
2022/12/07 04:29:36;;;;;;;5.27;4.40;;;;;;;1.19;87.01;95465.66;4991850;28;20702;-79
2022/12/07 04:32:02;;;;;;;6.47;5.07;;;;;;;1.23;87.72;95456.06;4982139;28;20204;-79
2022/12/07 04:34:27;;;;;;;5.93;4.83;;;;;;;1.17;88.09;95467.50;4978714;28;20216;-79
2022/12/07 04:36:52;;;;;;;6.60;5.00;;;;;;;1.24;87.53;95463.66;4979002;28;20196;-80
2022/12/07 04:39:26;;;;;;;7.50;4.80;;;;;;;1.27;87.76;95467.75;4961604;28;20190;-78
2022/12/07 04:41:52;;;;;;;6.70;5.13;;;;;;;1.33;87.40;95472.50;4964778;28;20187;-79
2022/12/07 04:44:18;;;;;;;7.53;4.63;;;;;;;1.23;87.05;95464.53;4979821;28;20208;-80
2022/12/07 04:46:43;;;;;;;6.93;5.00;;;;;;;1.23;86.91;95469.66;4977279;28;20204;-79
2022/12/07 04:49:09;;;;;;;7.40;4.43;;;;;;;1.20;87.14;95472.41;4964216;28;20648;-80
2022/12/07 04:51:35;;;;;;;5.53;4.50;;;;;;;1.20;87.15;95474.97;4983747;28;20207;-79
2022/12/07 04:54:00;;;;;;;7.50;4.60;;;;;;;1.18;87.04;95484.47;4989569;28;20230;-78
2022/12/07 04:56:25;;;;;;;5.57;4.13;;;;;;;1.05;86.67;95484.38;4978847;28;20204;-80
2022/12/07 04:58:52;;;;;;;5.50;4.20;;;;;;;1.04;86.51;95487.03;4965866;28;20177;-80
2022/12/07 05:01:18;;;;;;;8.03;4.83;;;;;;;0.97;87.14;95485.75;4982975;28;20185;-80
2022/12/07 05:03:43;;;;;;;6.10;4.67;;;;;;;0.95;87.26;95493.50;4977369;28;20219;-79
2022/12/07 05:06:10;;;;;;;7.03;4.93;;;;;;;1.01;87.42;95489.78;4983289;28;20188;-79
2022/12/07 05:08:35;;;;;;;7.53;5.90;;;;;;;0.98;87.89;95495.09;4981785;28;20238;-77
2022/12/07 05:11:01;;;;;;;8.50;5.67;;;;;;;1.02;88.09;95497.34;4978265;28;20648;-79
2022/12/07 05:13:26;;;;;;;8.97;7.37;;;;;;;1.05;88.64;95504.00;4989271;28;20191;-79
2022/12/07 05:15:51;;;;;;;11.77;9.03;;;;;;;1.03;89.06;95505.84;4985218;28;20193;-79
2022/12/07 05:18:17;;;;;;;13.07;9.03;;;;;;;1.07;88.62;95503.03;4992443;28;20192;-77
2022/12/07 05:20:43;;;;;;;13.17;9.93;;;;;;;1.11;89.00;95501.09;4978858;28;20184;-80
2022/12/07 05:23:08;;;;;;;9.90;8.90;;;;;;;1.10;88.83;95502.84;4980107;28;20659;-80
2022/12/07 05:25:34;;;;;;;8.97;7.10;;;;;;;1.14;89.00;95493.22;4982198;28;20235;-80
2022/12/07 05:27:59;;;;;;;7.10;5.80;;;;;;;1.15;89.31;95494.91;4979093;28;20188;-80
2022/12/07 05:30:25;;;;;;;6.30;5.70;;;;;;;1.16;90.16;95491.44;4989966;28;20220;-80
2022/12/07 05:32:50;;;;;;;7.47;5.83;;;;;;;1.25;89.21;95490.06;4967234;28;20223;-78
2022/12/07 05:35:16;;;;;;;9.10;6.20;;;;;;;1.31;89.52;95487.94;4981323;28;20204;-78
2022/12/07 05:37:41;;;;;;;8.23;6.07;;;;;;;1.29;89.89;95494.88;4981607;28;20203;-79
2022/12/07 05:40:08;;;;;;;7.60;5.83;;;;;;;1.30;90.40;95493.16;4979797;28;20184;-80
2022/12/07 05:42:34;;;;;;;8.13;6.40;;;;;;;1.34;90.12;95492.88;4982540;28;20723;-80
2022/12/07 05:44:59;;;;;;;10.30;6.77;;;;;;;1.37;90.75;95489.31;4983551;28;20243;-79
2022/12/07 05:47:24;;;;;;;8.27;6.43;;;;;;;1.39;90.55;95493.41;4987653;28;20639;-80
2022/12/07 05:49:50;;;;;;;10.47;6.67;;;;;;;1.29;90.50;95494.88;4984023;28;20192;-79
2022/12/07 05:52:15;;;;;;;8.63;5.60;;;;;;;1.37;90.78;95490.13;4983948;28;20231;-80
2022/12/07 05:54:40;;;;;;;10.23;8.10;;;;;;;1.37;91.01;95495.25;4957742;28;20749;-80
2022/12/07 05:57:05;;;;;;;8.50;6.20;;;;;;;1.38;90.73;95490.94;4985166;28;20722;-79
2022/12/07 05:59:31;;;;;;;9.93;6.50;;;;;;;1.38;91.06;95494.31;4983644;28;20183;-79
2022/12/07 06:02:02;;;;;;;11.00;7.30;;;;;;;1.34;90.90;95504.84;5000010;28;20200;-80
2022/12/07 06:04:31;;;;;;;11.57;7.53;;;;;;;1.37;90.98;95499.53;4985809;28;20220;-80
2022/12/07 06:06:57;;;;;;;11.10;7.90;;;;;;;1.36;90.46;95506.41;4978304;28;20183;-80
2022/12/07 06:09:23;;;;;;;11.73;8.10;;;;;;;1.37;89.97;95492.69;4980322;28;20684;-80
2022/12/07 06:14:32;;;;;;;8.27;6.10;;;;;;;1.30;88.26;95490.59;4983000;28;20710;-79
2022/12/07 06:16:58;;;;;;;6.80;5.60;;;;;;;1.38;87.30;95498.63;4978711;28;20188;-80
2022/12/07 06:19:23;;;;;;;9.50;6.23;;;;;;;1.33;86.41;95505.78;4958030;28;20823;-80
2022/12/07 06:21:49;;;;;;;9.23;6.17;;;;;;;1.39;85.06;95498.53;4979522;28;20188;-79
2022/12/07 06:24:15;;;;;;;6.23;4.50;;;;;;;1.36;83.32;95498.72;4983947;28;20283;-79
2022/12/07 06:26:40;;;;;;;5.70;4.43;;;;;;;1.36;81.91;95492.78;4976965;28;20184;-78
2022/12/07 06:29:06;;;;;;;5.37;4.50;;;;;;;1.36;81.38;95500.47;4980932;28;20702;-79
2022/12/07 06:31:31;;;;;;;3.83;3.43;;;;;;;1.39;81.59;95513.88;4987043;28;20672;-78
2022/12/07 06:34:01;;;;;;;6.00;4.30;;;;;;;1.42;80.61;95500.09;4983299;28;20586;-79
2022/12/07 06:36:27;;;;;;;4.80;4.13;;;;;;;1.49;79.73;95505.63;4980764;28;20679;-77
2022/12/07 06:38:54;;;;;;;6.03;4.53;;;;;;;1.46;80.19;95498.16;4977220;28;20183;-79
2022/12/07 06:41:19;;;;;;;5.77;4.30;;;;;;;1.41;80.48;95503.53;4986489;28;20587;-79
2022/12/07 06:43:44;;;;;;;6.70;4.83;;;;;;;1.54;81.05;95503.63;4984967;28;20216;-78
2022/12/07 06:46:10;;;;;;;5.17;4.40;;;;;;;1.49;81.12;95503.91;4985146;28;20188;-80
2022/12/07 06:48:35;;;;;;;7.13;3.97;;;;;;;1.47;81.16;95500.63;4990772;28;20219;-79
2022/12/07 06:51:00;;;;;;;4.57;3.73;;;;;;;1.30;81.09;95508.50;4968755;28;20747;-79
2022/12/07 06:53:26;;;;;;;3.93;3.53;;;;;;;1.32;81.98;95512.59;4981848;28;20259;-80
2022/12/07 06:55:51;;;;;;;5.10;4.03;;;;;;;1.41;81.86;95500.97;4989638;28;20199;-79
2022/12/07 06:58:17;;;;;;;4.33;3.43;;;;;;;1.29;82.65;95505.13;4983015;28;20193;-79
2022/12/07 07:00:43;;;;;;;4.30;3.77;;;;;;;1.24;82.93;95491.78;4984327;28;20191;-79
2022/12/07 07:03:08;;;;;;;4.87;3.93;;;;;;;1.16;84.38;95505.97;4991936;28;20202;-79
2022/12/07 07:05:34;;;;;;;6.90;4.53;;;;;;;1.27;84.49;95509.50;4986061;28;20292;-79
2022/12/07 07:07:59;;;;;;;10.10;4.57;;;;;;;1.34;84.02;95495.44;4973011;28;20231;-78
2022/12/07 07:10:24;;;;;;;7.07;4.30;;;;;;;1.36;83.69;95506.41;4979256;28;20211;-80
2022/12/07 07:12:50;;;;;;;6.87;4.33;;;;;;;1.35;83.26;95494.53;4978254;28;20841;-81
2022/12/07 07:15:15;;;;;;;5.43;4.17;;;;;;;1.36;82.70;95503.00;4972736;28;20232;-80
2022/12/07 07:17:40;;;;;;;6.07;4.47;;;;;;;1.37;82.86;95494.41;4983592;28;20278;-80
2022/12/07 07:20:06;;;;;;;5.20;4.00;;;;;;;1.44;81.35;95498.25;4969216;28;20192;-80
2022/12/07 07:22:31;;;;;;;6.93;4.37;;;;;;;1.52;80.96;95500.34;4981120;28;20188;-81
2022/12/07 07:24:57;;;;;;;5.17;4.10;;;;;;;1.51;80.73;95503.84;4984022;28;20208;-81
2022/12/07 07:27:22;;;;;;;5.73;4.53;;;;;;;1.66;80.93;95501.13;4977467;28;20536;-79
2022/12/07 07:29:47;;;;;;;4.80;4.30;;;;;;;1.68;81.11;95504.44;4983647;28;20340;-80
2022/12/07 07:32:13;;;;;;;6.87;5.17;;;;;;;1.71;81.11;95508.53;4981071;28;20199;-81
2022/12/07 07:34:39;;;;;;;5.67;4.37;;;;;;;1.69;80.13;95505.25;5002583;28;20207;-78
2022/12/07 07:37:12;;;;;;;4.80;4.00;;;;;;;1.74;80.42;95510.06;5016186;28;20181;-78
2022/12/07 07:39:41;;;;;;;6.23;3.60;;;;;;;1.72;80.70;95505.06;5009327;28;20179;-78
2022/12/07 07:42:07;;;;;;;4.93;4.07;;;;;;;1.55;80.65;95506.09;4999546;28;20195;-81
2022/12/07 07:44:33;;;;;;;6.60;4.03;;;;;;;1.69;80.27;95495.00;5004447;28;20433;-78
2022/12/07 07:46:58;;;;;;;4.67;3.77;;;;;;;1.86;80.17;95507.59;4975956;28;20181;-78
2022/12/07 07:49:24;;;;;;;4.20;3.80;;;;;;;1.67;79.17;95499.38;4967165;28;20193;-79
2022/12/07 07:51:49;;;;;;;5.27;3.27;;;;;;;1.77;79.61;95507.31;4984502;28;20212;-79
2022/12/07 07:54:14;;;;;;;4.70;3.60;;;;;;;1.95;79.33;95503.63;4986905;28;20271;-79
2022/12/07 07:56:40;;;;;;;4.70;3.60;;;;;;;1.90;79.22;95503.09;4960749;28;20180;-79
2022/12/07 07:59:05;;;;;;;5.30;3.53;;;;;;;1.89;79.84;95509.13;4982773;28;20184;-79
2022/12/07 08:01:30;;;;;;;5.93;3.93;;;;;;;1.92;80.40;95517.44;4976469;28;20370;-78
2022/12/07 08:03:55;;;;;;;5.30;3.53;;;;;;;2.08;79.96;95511.34;4990031;28;20203;-80
2022/12/07 08:06:21;;;;;;;6.43;3.50;;;;;;;1.97;80.21;95512.84;4980249;28;20678;-80
2022/12/07 08:08:46;;;;;;;4.97;3.80;;;;;;;2.08;79.79;95507.06;4979317;28;20187;-81
2022/12/07 08:11:11;;;;;;;4.40;3.87;;;;;;;2.11;80.31;95513.72;4986817;28;20266;-80
2022/12/07 08:13:37;;;;;;;5.20;4.20;;;;;;;2.10;80.02;95509.50;4975240;28;20715;-80
2022/12/07 08:16:08;;;;;;;4.07;3.47;;;;;;;2.16;80.20;95515.06;4974985;28;20188;-80
2022/12/07 08:18:38;;;;;;;5.47;3.93;;;;;;;2.10;80.01;95509.50;4979223;28;20178;-80
2022/12/07 08:21:05;;;;;;;5.10;3.50;;;;;;;2.20;79.82;95510.56;4972633;28;20217;-80
2022/12/07 08:23:30;;;;;;;15.53;10.53;;;;;;;2.25;80.33;95509.38;4980541;28;20188;-78
2022/12/07 08:26:01;;;;;;;7.00;5.17;;;;;;;2.33;79.97;95506.31;4969727;28;20196;-80
2022/12/07 08:28:26;;;;;;;6.43;3.93;;;;;;;2.44;80.52;95514.13;4976240;28;20212;-79
2022/12/07 08:30:51;;;;;;;7.10;6.10;;;;;;;2.43;80.45;95520.19;4984603;28;20203;-79
2022/12/07 08:33:16;;;;;;;4.80;4.33;;;;;;;2.49;81.26;95521.53;4977624;28;20203;-80
2022/12/07 08:35:42;;;;;;;12.33;10.00;;;;;;;2.55;81.05;95516.81;4967453;28;20219;-79
2022/12/07 08:38:07;;;;;;;19.80;15.10;;;;;;;2.64;80.96;95528.22;4974544;28;20613;-79
2022/12/07 08:40:33;;;;;;;8.73;6.57;;;;;;;2.55;81.31;95521.94;4983390;28;20298;-79
2022/12/07 08:42:58;;;;;;;15.47;13.17;;;;;;;2.76;81.05;95527.44;4982659;28;20572;-79
2022/12/07 08:45:24;;;;;;;8.97;7.97;;;;;;;2.81;80.57;95533.06;4983724;28;20208;-79
2022/12/07 08:47:55;;;;;;;12.00;9.37;;;;;;;2.82;81.23;95531.31;4984158;28;20184;-80
2022/12/07 08:50:21;;;;;;;9.30;7.43;;;;;;;2.74;81.59;95526.72;4960041;28;20881;-79
2022/12/07 08:52:55;;;;;;;7.07;5.33;;;;;;;2.84;81.41;95532.88;4977276;28;20255;-79
2022/12/07 08:55:20;;;;;;;5.80;4.90;;;;;;;2.84;81.82;95537.19;4954906;28;20219;-79
2022/12/07 08:57:46;;;;;;;8.07;4.73;;;;;;;3.00;80.80;95532.66;4961057;28;20242;-78
2022/12/07 09:00:12;;;;;;;6.03;4.60;;;;;;;2.96;81.03;95535.53;4975766;28;20196;-80
2022/12/07 09:02:37;;;;;;;6.27;4.43;;;;;;;2.98;80.76;95542.22;4968111;28;20223;-80
2022/12/07 09:05:03;;;;;;;4.90;4.20;;;;;;;2.86;81.77;95540.47;4973664;28;20216;-79
2022/12/07 09:07:29;;;;;;;6.23;4.33;;;;;;;2.83;81.38;95535.53;4982895;28;20572;-80
2022/12/07 09:09:55;;;;;;;5.87;4.50;;;;;;;3.02;81.31;95530.00;4975406;28;20197;-80
2022/12/07 09:12:21;;;;;;;6.93;4.60;;;;;;;3.03;81.25;95532.47;4968909;28;20267;-80
2022/12/07 09:14:46;;;;;;;7.23;4.50;;;;;;;3.14;81.00;95529.19;4975891;28;20216;-79
2022/12/07 09:17:12;;;;;;;6.53;4.97;;;;;;;3.09;80.93;95537.22;4974843;28;20192;-79
2022/12/07 09:19:38;;;;;;;5.60;4.60;;;;;;;3.01;81.01;95533.50;4954610;28;20199;-79
2022/12/07 09:22:04;;;;;;;5.27;4.10;;;;;;;3.05;81.46;95535.75;4975983;28;20211;-79
2022/12/07 09:24:30;;;;;;;6.00;4.17;;;;;;;3.19;81.33;95539.16;4979686;28;20736;-81
2022/12/07 09:26:55;;;;;;;7.97;4.40;;;;;;;3.24;81.50;95530.22;4973254;28;20184;-79
2022/12/07 09:29:21;;;;;;;4.37;3.70;;;;;;;3.23;81.67;95532.88;4981003;28;20287;-79
2022/12/07 09:31:46;;;;;;;5.93;4.70;;;;;;;3.38;80.96;95537.81;4978794;28;20223;-80
2022/12/07 09:34:11;;;;;;;7.80;4.00;;;;;;;3.16;81.45;95534.22;4975013;28;20902;-80
2022/12/07 09:36:36;;;;;;;6.97;4.80;;;;;;;3.25;81.89;95536.97;4979199;28;20202;-79
2022/12/07 09:39:04;;;;;;;4.80;3.80;;;;;;;2.92;82.03;95534.94;4979140;28;20184;-78
2022/12/07 09:41:30;;;;;;;5.20;3.57;;;;;;;3.00;82.28;95527.53;4960801;28;20266;-79
2022/12/07 09:44:03;;;;;;;6.00;4.20;;;;;;;3.16;81.62;95532.47;4980811;28;20783;-79
2022/12/07 09:46:28;;;;;;;5.60;4.20;;;;;;;3.16;82.13;95539.34;4981329;28;20194;-80
2022/12/07 09:48:54;;;;;;;6.23;4.33;;;;;;;3.08;82.97;95535.53;4975956;28;20199;-79
2022/12/07 09:51:22;;;;;;;4.50;4.00;;;;;;;3.17;83.13;95534.09;4969486;28;20676;-79
2022/12/07 09:53:48;;;;;;;5.83;3.83;;;;;;;3.06;83.66;95534.81;4974181;28;20219;-80
2022/12/07 09:56:14;;;;;;;6.10;3.90;;;;;;;3.22;83.34;95529.50;4962384;28;20202;-79
2022/12/07 09:58:42;;;;;;;5.50;3.50;;;;;;;3.25;83.89;95529.28;4977968;28;20194;-80
2022/12/07 10:01:07;;;;;;;6.70;3.70;;;;;;;3.50;83.29;95525.06;4977958;28;20196;-80
2022/12/07 10:03:32;;;;;;;3.37;2.67;;;;;;;3.28;83.35;95518.81;4983881;28;20570;-80
2022/12/07 10:05:57;;;;;;;5.17;3.33;;;;;;;3.53;82.87;95519.69;4982213;28;20225;-78
2022/12/07 10:08:24;;;;;;;3.63;3.17;;;;;;;3.61;82.70;95520.81;4975116;28;20758;-79
2022/12/07 10:10:55;;;;;;;4.63;3.33;;;;;;;3.65;82.88;95513.72;4988370;28;20200;-79
2022/12/07 10:13:22;;;;;;;3.23;2.67;;;;;;;3.61;82.11;95504.59;4958382;28;20215;-79
2022/12/07 10:15:49;;;;;;;7.43;5.70;;;;;;;3.84;81.69;95510.69;4983046;28;20731;-80
2022/12/07 10:18:36;;;;;;;5.33;3.20;;;;;;;3.88;82.23;95505.22;4960497;28;20738;-79
2022/12/07 10:21:08;;;;;;;4.47;3.50;;;;;;;4.16;81.12;95504.13;4962240;28;20201;-79
2022/12/07 10:23:34;;;;;;;5.23;3.53;;;;;;;4.14;81.76;95505.13;4978732;28;20191;-80
2022/12/07 10:26:21;;;;;;;4.20;3.53;;;;;;;3.99;82.71;95509.63;4943127;29;20186;-79
2022/12/07 10:28:46;;;;;;;4.23;3.07;;;;;;;3.66;82.94;95499.97;4958703;28;20298;-79
2022/12/07 10:31:17;;;;;;;4.07;3.20;;;;;;;3.79;84.61;95498.16;4948946;28;20556;-79
2022/12/07 10:33:57;;;;;;;4.47;3.80;;;;;;;4.04;83.95;95494.69;4946832;29;20220;-80
2022/12/07 10:36:35;;;;;;;4.23;3.30;;;;;;;4.13;84.34;95506.06;4942068;29;20195;-79
2022/12/07 10:39:21;;;;;;;7.07;4.30;;;;;;;4.21;84.36;95502.00;4938190;29;20182;-79
2022/12/07 10:41:55;;;;;;;7.37;6.70;;;;;;;4.26;83.18;95505.09;4943256;29;20275;-80
2022/12/07 10:44:23;;;;;;;5.07;4.53;;;;;;;4.37;82.90;95495.78;4961836;28;20224;-80
2022/12/07 10:47:18;;;;;;;35.33;32.03;;;;;;;4.48;83.28;95496.63;4941157;29;20195;-80
2022/12/07 10:50:17;;;;;;;5.67;5.03;;;;;;;4.54;82.99;95501.34;4931158;29;20259;-80
2022/12/07 10:52:57;;;;;;;4.13;3.73;;;;;;;4.24;82.39;95501.81;4923242;29;20206;-80
2022/12/07 10:55:31;;;;;;;6.47;4.57;;;;;;;4.14;83.28;95493.09;4958604;28;20224;-79
2022/12/07 10:58:38;;;;;;;5.20;4.47;;;;;;;4.20;82.97;95490.09;4948072;29;20200;-80
2022/12/07 11:01:26;;;;;;;5.23;4.53;;;;;;;4.04;84.55;95486.97;4935222;29;20221;-80
2022/12/07 11:04:15;;;;;;;4.07;3.67;;;;;;;3.98;83.88;95484.88;4954792;29;20686;-79
2022/12/07 11:06:49;;;;;;;6.33;4.10;;;;;;;3.86;84.72;95476.25;4962289;28;20226;-80
2022/12/07 11:09:37;;;;;;;7.43;5.50;;;;;;;4.06;83.63;95466.31;4950990;29;20233;-79
2022/12/07 11:12:14;;;;;;;18.57;16.40;;;;;;;4.00;84.06;95472.72;4942925;29;20209;-79
2022/12/07 11:14:39;;;;;;;54.80;33.73;;;;;;;3.99;84.70;95463.38;4942892;29;20216;-80
2022/12/07 11:17:26;;;;;;;132.67;77.77;;;;;;;4.07;83.61;95473.94;4943059;29;20209;-79
2022/12/07 11:20:02;;;;;;;23.87;21.33;;;;;;;3.92;84.49;95465.56;4920778;29;20189;-79
2022/12/07 11:22:49;;;;;;;7.13;6.43;;;;;;;3.96;84.52;95456.69;4947317;29;20219;-80
2022/12/07 11:25:22;;;;;;;9.97;6.90;;;;;;;3.97;84.54;95463.47;4927120;29;20765;-78
2022/12/07 11:28:02;;;;;;;15.30;10.00;;;;;;;3.98;85.14;95459.16;4921910;29;20191;-79
2022/12/07 11:31:05;;;;;;;8.73;6.70;;;;;;;4.03;84.88;95461.41;4951844;29;20188;-79
2022/12/07 11:33:37;;;;;;;5.97;5.23;;;;;;;3.99;84.68;95458.25;4933281;29;20201;-78
2022/12/07 11:36:45;;;;;;;6.37;5.53;;;;;;;3.86;84.13;95452.31;4953439;28;20193;-78
2022/12/07 11:39:30;;;;;;;6.20;5.23;;;;;;;3.84;84.02;95447.28;4969285;28;20192;-78
2022/12/07 11:42:24;;;;;;;6.27;5.20;;;;;;;3.73;84.77;95443.84;4944181;29;20216;-78
2022/12/07 11:44:53;;;;;;;8.43;6.27;;;;;;;3.80;84.67;95442.47;4963185;28;20223;-79
2022/12/07 11:47:26;;;;;;;6.83;5.00;;;;;;;3.88;84.60;95447.88;4950346;29;20189;-79